Time;durP1;ratioP1;P1;durP2;ratioP2;P2;SDS_P1;SDS_P2;PMS_P1;PMS_P2;Temp;Humidity;BMP_temperature;BMP_pressure;BME280_temperature;BME280_humidity;BME280_pressure;Samples;Min_cycle;Max_cycle;Signal;HPM_P1;HPM_P2
2023/08/22 00:01:54;;;;;;;;;;;;;;;27.49;100.00;99973.75;4933006;29;20380;-72
2023/08/22 00:04:20;;;;;;;;;;;;;;;27.52;100.00;99967.06;4933326;29;20388;-73
2023/08/22 00:06:45;;;;;;;;;;;;;;;27.52;100.00;99961.63;4934230;29;19961;-73
2023/08/22 00:09:11;;;;;;;;;;;;;;;27.51;100.00;99957.28;4933494;29;20009;-72
2023/08/22 00:11:36;;;;;;;;;;;;;;;27.49;100.00;99964.81;4932443;29;19930;-73
2023/08/22 00:14:02;;;;;;;;;;;;;;;27.49;100.00;99964.81;4924207;29;19923;-73
2023/08/22 00:16:27;;;;;;;;;;;;;;;27.41;100.00;99962.47;4925237;29;19950;-73
2023/08/22 00:18:53;;;;;;;;;;;;;;;27.41;100.00;99957.06;4922486;29;19950;-73
2023/08/22 00:21:18;;;;;;;;;;;;;;;27.40;100.00;99949.97;4925362;29;19969;-73
2023/08/22 00:23:43;;;;;;;;;;;;;;;27.38;100.00;99954.84;4923188;29;20315;-73
2023/08/22 00:26:09;;;;;;;;;;;;;;;27.34;100.00;99956.38;4924541;29;19945;-74
2023/08/22 00:28:34;;;;;;;;;;;;;;;27.19;100.00;99960.44;4924889;29;19923;-73
2023/08/22 00:30:59;;;;;;;;;;;;;;;26.99;100.00;99959.22;4918334;29;19923;-73
2023/08/22 00:33:25;;;;;;;;;;;;;;;26.94;100.00;99957.22;4923127;29;19923;-73
2023/08/22 00:35:51;;;;;;;;;;;;;;;26.97;100.00;99951.34;4923830;29;20199;-72
2023/08/22 00:38:16;;;;;;;;;;;;;;;26.95;100.00;99952.63;4925194;29;20666;-72
2023/08/22 00:40:41;;;;;;;;;;;;;;;26.98;100.00;99947.56;4926411;29;19923;-72
2023/08/22 00:43:07;;;;;;;;;;;;;;;26.97;100.00;99951.34;4922683;29;19930;-72
2023/08/22 00:45:32;;;;;;;;;;;;;;;26.97;100.00;99956.75;4923363;29;19970;-72
2023/08/22 00:47:58;;;;;;;;;;;;;;;26.95;100.00;99952.63;4923976;29;19922;-72
2023/08/22 00:50:24;;;;;;;;;;;;;;;26.61;100.00;99948.91;4920104;29;19923;-71
2023/08/22 00:52:50;;;;;;;;;;;;;;;26.32;100.00;99948.00;4921633;29;19923;-72
2023/08/22 00:55:17;;;;;;;;;;;;;;;26.34;100.00;99951.28;4929351;29;19930;-73
2023/08/22 00:57:42;;;;;;;;;;;;;;;26.33;100.00;99949.66;4923085;29;19927;-73
2023/08/22 01:00:10;;;;;;;;;;;;;;;26.30;100.00;99947.41;4927535;29;19926;-71
2023/08/22 01:02:36;;;;;;;;;;;;;;;26.09;100.00;99951.50;4922985;29;19973;-72
2023/08/22 01:05:03;;;;;;;;;;;;;;;25.90;100.00;99944.53;4925491;29;19977;-71
2023/08/22 01:07:49;;;;;;;;;;;;;;;25.96;100.00;99949.81;4926406;29;19922;-71
2023/08/22 01:10:21;;;;;;;;;;;;;;;26.01;100.00;99947.25;4924623;29;20017;-73
2023/08/22 01:12:57;;;;;;;;;;;;;;;26.16;100.00;99941.34;4928692;29;19923;-71
2023/08/22 01:15:26;;;;;;;;;;;;;;;26.26;100.00;99944.34;4925468;29;19923;-73
2023/08/22 01:17:53;;;;;;;;;;;;;;;26.27;100.00;99940.56;4926223;29;19926;-73
2023/08/22 01:20:18;;;;;;;;;;;;;;;26.28;100.00;99942.22;4927266;29;19930;-73
2023/08/22 01:22:45;;;;;;;;;;;;;;;26.32;100.00;99938.00;4923451;29;19923;-73
2023/08/22 01:25:11;;;;;;;;;;;;;;;26.36;100.00;99944.56;4926278;29;20340;-73
2023/08/22 01:27:43;;;;;;;;;;;;;;;26.44;100.00;99938.81;4921719;29;19923;-72
2023/08/22 01:30:12;;;;;;;;;;;;;;;26.48;100.00;99937.28;4925410;29;19923;-73
2023/08/22 01:32:40;;;;;;;;;;;;;;;26.46;100.00;99943.97;4927118;29;20407;-73
2023/08/22 01:35:08;;;;;;;;;;;;;;;26.37;100.00;99937.28;4928226;29;19958;-72
2023/08/22 01:37:35;;;;;;;;;;;;;;;26.41;100.00;99941.97;4924942;29;19923;-73
2023/08/22 01:40:01;;;;;;;;;;;;;;;26.26;100.00;99938.94;4926651;29;20009;-72
2023/08/22 01:42:27;;;;;;;;;;;;;;;25.98;100.00;99933.34;4924674;29;20013;-72
2023/08/22 01:44:52;;;;;;;;;;;;;;;25.71;100.00;99941.06;4924272;29;20582;-72
2023/08/22 01:47:17;;;;;;;;;;;;;;;25.66;100.00;99933.66;4922988;29;19962;-72
2023/08/22 01:49:44;;;;;;;;;;;;;;;25.55;100.00;99941.72;4907610;29;19923;-72
2023/08/22 01:52:10;;;;;;;;;;;;;;;25.45;100.00;99936.84;4925896;29;20295;-72
2023/08/22 01:54:36;;;;;;;;;;;;;;;25.48;100.00;99940.97;4926161;29;19975;-72
2023/08/22 01:57:02;;;;;;;;;;;;;;;25.56;100.00;99938.81;4925593;29;20363;-72
2023/08/22 01:59:27;;;;;;;;;;;;;;;25.56;100.00;99941.53;4924460;29;19950;-71
2023/08/22 02:01:52;;;;;;;;;;;;;;;25.66;100.00;99939.06;4926522;29;19967;-71
2023/08/22 02:04:18;;;;;;;;;;;;;;;25.66;100.00;99949.88;4921624;29;19990;-71
2023/08/22 02:06:43;;;;;;;;;;;;;;;25.62;100.00;99943.28;4923552;29;19929;-71
2023/08/22 02:09:09;;;;;;;;;;;;;;;25.63;100.00;99936.81;4924589;29;19950;-72
2023/08/22 02:11:35;;;;;;;;;;;;;;;25.65;100.00;99945.53;4925071;29;19930;-72
2023/08/22 02:14:01;;;;;;;;;;;;;;;25.64;100.00;99945.75;4926304;29;19923;-73
2023/08/22 02:16:26;;;;;;;;;;;;;;;25.69;100.00;99937.78;4927070;29;20017;-73
2023/08/22 02:18:51;;;;;;;;;;;;;;;25.61;100.00;99938.94;4923963;29;20025;-74
2023/08/22 02:21:17;;;;;;;;;;;;;;;25.67;100.00;99934.50;4926441;29;19927;-74
2023/08/22 02:23:42;;;;;;;;;;;;;;;25.68;100.00;99931.53;4922989;29;19963;-76
2023/08/22 02:26:07;;;;;;;;;;;;;;;25.75;100.00;99930.63;4925702;29;20380;-72
2023/08/22 02:28:33;;;;;;;;;;;;;;;25.67;100.00;99927.22;4909578;29;19930;-73
2023/08/22 02:30:58;;;;;;;;;;;;;;;25.71;100.00;99934.84;4924558;29;19922;-72
2023/08/22 02:33:24;;;;;;;;;;;;;;;25.76;100.00;99929.56;4925212;29;19923;-73
2023/08/22 02:35:49;;;;;;;;;;;;;;;25.77;100.00;99928.50;4925381;29;19929;-72
2023/08/22 02:38:15;;;;;;;;;;;;;;;25.54;100.00;99930.09;4922167;29;19923;-72
2023/08/22 02:40:41;;;;;;;;;;;;;;;25.39;100.00;99935.06;4926059;29;19946;-75
2023/08/22 02:43:06;;;;;;;;;;;;;;;25.34;100.00;99937.63;4923351;29;19930;-73
2023/08/22 02:45:31;;;;;;;;;;;;;;;25.23;100.00;99938.41;4924889;29;19933;-72
2023/08/22 02:47:56;;;;;;;;;;;;;;;25.26;100.00;99937.97;4925935;29;19923;-73
2023/08/22 02:50:23;;;;;;;;;;;;;;;25.29;100.00;99932.09;4927959;29;19923;-73
2023/08/22 02:52:49;;;;;;;;;;;;;;;25.26;100.00;99929.88;4922152;29;19934;-72
2023/08/22 02:55:15;;;;;;;;;;;;;;;25.30;100.00;99936.47;4923244;29;19978;-73
2023/08/22 02:57:40;;;;;;;;;;;;;;;25.32;100.00;99930.84;4906263;29;19923;-73
2023/08/22 03:00:08;;;;;;;;;;;;;;;25.27;100.00;99935.03;4926929;29;19941;-73
2023/08/22 03:02:33;;;;;;;;;;;;;;;25.26;100.00;99937.97;4905713;29;19947;-73
2023/08/22 03:04:59;;;;;;;;;;;;;;;25.28;100.00;99938.56;4925234;29;19923;-72
2023/08/22 03:07:24;;;;;;;;;;;;;;;25.25;100.00;99939.03;4923427;29;19977;-73
2023/08/22 03:09:49;;;;;;;;;;;;;;;25.28;100.00;99938.56;4921415;29;19954;-73
2023/08/22 03:12:20;;;;;;;;;;;;;;;25.21;100.00;99929.75;4922903;29;20087;-73
2023/08/22 03:14:45;;;;;;;;;;;;;;;25.21;100.00;99935.13;4921496;29;20030;-74
2023/08/22 03:17:11;;;;;;;;;;;;;;;25.22;100.00;99936.75;4922745;29;20024;-73
2023/08/22 03:19:37;;;;;;;;;;;;;;;25.25;100.00;99930.91;4924932;29;19923;-73
2023/08/22 03:22:03;;;;;;;;;;;;;;;25.22;100.00;99931.38;4920749;29;19923;-74
2023/08/22 03:24:30;;;;;;;;;;;;;;;25.11;100.00;99930.25;4903069;29;19923;-74
2023/08/22 03:26:56;;;;;;;;;;;;;;;25.07;100.00;99929.09;4907203;29;19930;-73
2023/08/22 03:29:22;;;;;;;;;;;;;;;25.13;100.00;99927.34;4923882;29;19927;-74
2023/08/22 03:31:47;;;;;;;;;;;;;;;25.07;100.00;99929.09;4923062;29;19923;-74
2023/08/22 03:34:14;;;;;;;;;;;;;;;25.06;100.00;99921.19;4925002;29;19930;-73
2023/08/22 03:36:39;;;;;;;;;;;;;;;25.07;100.00;99928.25;4924831;29;19923;-74
2023/08/22 03:39:07;;;;;;;;;;;;;;;25.10;100.00;99933.19;4920665;29;20029;-75
2023/08/22 03:41:32;;;;;;;;;;;;;;;25.09;100.00;99915.34;4920642;29;20427;-74
2023/08/22 03:43:59;;;;;;;;;;;;;;;25.07;100.00;99928.25;4921927;29;19923;-74
2023/08/22 03:46:26;;;;;;;;;;;;;;;24.98;100.00;99924.19;4921842;29;19962;-74
2023/08/22 03:48:51;;;;;;;;;;;;;;;25.00;100.00;99922.09;4924566;29;19984;-74
2023/08/22 03:51:18;;;;;;;;;;;;;;;25.01;100.00;99929.16;4922489;29;20267;-74
2023/08/22 03:53:43;;;;;;;;;;;;;;;24.98;100.00;99924.19;4924418;29;20383;-74
2023/08/22 03:56:08;;;;;;;;;;;;;;;24.95;100.00;99930.06;4921767;29;19963;-74
2023/08/22 03:58:34;;;;;;;;;;;;;;;24.97;100.00;99933.38;4922644;29;19923;-73
2023/08/22 04:01:03;;;;;;;;;;;;;;;24.97;100.00;99944.19;4922124;29;19919;-73
2023/08/22 04:03:28;;;;;;;;;;;;;;;25.04;100.00;99929.53;4906220;29;20021;-73
2023/08/22 04:05:54;;;;;;;;;;;;;;;25.02;100.00;99915.44;4922094;29;20022;-73
2023/08/22 04:08:19;;;;;;;;;;;;;;;25.01;100.00;99923.75;4923083;29;19926;-74
2023/08/22 04:10:48;;;;;;;;;;;;;;;24.99;100.00;99932.09;4920732;29;19923;-73
2023/08/22 04:13:13;;;;;;;;;;;;;;;24.77;100.00;99937.09;4923508;29;19922;-72
2023/08/22 04:15:39;;;;;;;;;;;;;;;24.72;100.00;99942.34;4922662;29;20238;-73
2023/08/22 04:18:05;;;;;;;;;;;;;;;24.67;100.00;99938.69;4917022;29;19946;-72
2023/08/22 04:20:31;;;;;;;;;;;;;;;24.41;100.00;99932.53;4923775;29;20364;-72
2023/08/22 04:22:56;;;;;;;;;;;;;;;24.34;100.00;99934.44;4922190;29;19930;-73
2023/08/22 04:25:21;;;;;;;;;;;;;;;24.32;100.00;99941.13;4923266;29;19953;-73
2023/08/22 04:27:47;;;;;;;;;;;;;;;24.23;100.00;99942.44;4925020;29;19918;-72
2023/08/22 04:30:13;;;;;;;;;;;;;;;24.09;100.00;99958.72;4910055;29;19923;-73
2023/08/22 04:32:38;;;;;;;;;;;;;;;24.00;100.00;99943.88;4929309;29;19974;-73
2023/08/22 04:35:05;;;;;;;;;;;;;;;24.06;100.00;99942.16;4927814;29;20360;-72
2023/08/22 04:37:31;;;;;;;;;;;;;;;24.12;100.00;99949.38;4924565;29;19958;-71
2023/08/22 04:39:57;;;;;;;;;;;;;;;24.18;100.00;99951.22;4926246;29;20291;-73
2023/08/22 04:42:31;;;;;;;;;;;;;;;24.16;100.00;99942.47;4911054;29;20009;-73
2023/08/22 04:45:01;;;;;;;;;;;;;;;24.13;100.00;99953.72;4908618;29;19922;-72
2023/08/22 04:47:27;;;;;;;;;;;;;;;24.10;100.00;99946.06;4927474;29;20392;-73
2023/08/22 04:49:52;;;;;;;;;;;;;;;24.19;100.00;99949.34;4925364;29;19980;-72
2023/08/22 04:52:18;;;;;;;;;;;;;;;24.25;100.00;99960.06;4927519;29;20324;-72
2023/08/22 04:54:44;;;;;;;;;;;;;;;24.31;100.00;99961.06;4928236;29;19927;-72
2023/08/22 04:57:09;;;;;;;;;;;;;;;24.34;100.00;99971.38;4924850;29;19923;-73
2023/08/22 04:59:34;;;;;;;;;;;;;;;24.39;100.00;99968.84;4925537;29;20013;-73
2023/08/22 05:02:00;;;;;;;;;;;;;;;24.23;100.00;99982.91;4927035;29;20308;-72
2023/08/22 05:04:26;;;;;;;;;;;;;;;24.05;100.00;99973.69;4923366;29;19922;-72
2023/08/22 05:06:52;;;;;;;;;;;;;;;23.77;100.00;99984.06;4915937;29;20376;-73
2023/08/22 05:09:18;;;;;;;;;;;;;;;23.86;100.00;99980.03;4919473;29;19929;-75
2023/08/22 05:11:44;;;;;;;;;;;;;;;23.92;100.00;99981.88;4924729;29;20344;-73
2023/08/22 05:14:11;;;;;;;;;;;;;;;23.97;100.00;99975.84;4922719;29;19971;-74
2023/08/22 05:16:38;;;;;;;;;;;;;;;24.04;100.00;99982.81;4922756;29;19923;-73
2023/08/22 05:19:03;;;;;;;;;;;;;;;24.13;100.00;99987.94;4923182;29;20013;-73
2023/08/22 05:21:29;;;;;;;;;;;;;;;24.17;100.00;99986.44;4907152;29;20013;-73
2023/08/22 05:23:55;;;;;;;;;;;;;;;24.05;100.00;99978.25;4924114;29;19927;-75
2023/08/22 05:26:20;;;;;;;;;;;;;;;23.79;100.00;99979.28;4908860;29;20002;-76
2023/08/22 05:28:45;;;;;;;;;;;;;;;23.88;100.00;99977.97;4922711;29;19950;-75
2023/08/22 05:31:21;;;;;;;;;;;;;;;23.96;100.00;99985.78;4912284;29;20430;-73
2023/08/22 05:33:47;;;;;;;;;;;;;;;23.97;100.00;99983.94;4926491;29;19947;-73
2023/08/22 05:36:12;;;;;;;;;;;;;;;24.03;100.00;99983.84;4924739;29;19922;-73
2023/08/22 05:38:37;;;;;;;;;;;;;;;24.11;100.00;99981.94;4924639;29;19922;-73
2023/08/22 05:41:03;;;;;;;;;;;;;;;24.21;100.00;99982.31;4926117;29;19919;-76
2023/08/22 05:43:29;;;;;;;;;;;;;;;24.31;100.00;99982.63;4919168;29;19923;-72
2023/08/22 05:45:55;;;;;;;;;;;;;;;24.37;100.00;99985.28;4926948;29;19938;-72
2023/08/22 05:48:21;;;;;;;;;;;;;;;24.42;100.00;99987.28;4927809;29;19961;-73
2023/08/22 05:50:48;;;;;;;;;;;;;;;24.50;100.00;99981.63;4926183;29;20372;-73
2023/08/22 05:53:13;;;;;;;;;;;;;;;24.58;100.00;99989.41;4925002;29;19941;-71
2023/08/22 05:55:38;;;;;;;;;;;;;;;24.68;100.00;99978.13;4926958;29;19927;-73
2023/08/22 05:58:04;;;;;;;;;;;;;;;24.74;100.00;99986.13;4908641;29;19935;-74
2023/08/22 06:00:30;;;;;;;;;;;;;;;24.80;100.00;99987.91;4925233;29;19923;-74
2023/08/22 06:02:56;;;;;;;;;;;;;;;24.86;100.00;99992.41;4929242;29;19942;-72
2023/08/22 06:05:24;;;;;;;;;;;;;;;24.84;100.00;99989.13;4923374;29;20150;-74
2023/08/22 06:07:50;;;;;;;;;;;;;;;24.88;100.00;99990.38;4927125;29;20395;-75
2023/08/22 06:10:16;;;;;;;;;;;;;;;24.94;100.00;99987.81;4908824;29;19973;-73
2023/08/22 06:12:41;;;;;;;;;;;;;;;24.99;100.00;99990.66;4920965;29;19965;-73
2023/08/22 06:15:07;;;;;;;;;;;;;;;25.08;100.00;99992.00;4925768;29;20051;-78
2023/08/22 06:17:32;;;;;;;;;;;;;;;25.10;100.00;99988.03;4922922;29;19923;-74
2023/08/22 06:19:58;;;;;;;;;;;;;;;25.19;100.00;99985.84;4911598;29;19966;-76
2023/08/22 06:22:23;;;;;;;;;;;;;;;25.14;100.00;99993.81;4921598;29;19930;-75
2023/08/22 06:24:49;;;;;;;;;;;;;;;25.23;100.00;99993.25;4924993;29;20002;-74
2023/08/22 06:27:14;;;;;;;;;;;;;;;25.31;100.00;99997.53;4925745;29;19931;-77
2023/08/22 06:29:39;;;;;;;;;;;;;;;25.37;100.00;99996.63;4924811;29;19925;-78
2023/08/22 06:32:05;;;;;;;;;;;;;;;25.41;100.00;99995.09;4923056;29;19990;-75
2023/08/22 06:34:31;;;;;;;;;;;;;;;25.44;100.00;100000.06;4921406;29;19957;-77
2023/08/22 06:36:57;;;;;;;;;;;;;;;25.52;100.00;99996.19;4921421;29;19942;-77
2023/08/22 06:39:22;;;;;;;;;;;;;;;25.57;100.00;99989.09;4922437;29;20002;-73
2023/08/22 06:41:48;;;;;;;;;;;;;;;25.60;100.00;99999.44;4924693;29;19931;-76
2023/08/22 06:44:18;;;;;;;;;;;;;;;25.67;100.00;100005.59;4925167;29;19923;-75
2023/08/22 06:46:46;;;;;;;;;;;;;;;25.70;100.00;99998.88;4922607;29;19923;-74
2023/08/22 06:49:11;;;;;;;;;;;;;;;25.64;100.00;100003.34;4924134;29;19998;-75
2023/08/22 06:51:37;;;;;;;;;;;;;;;25.58;100.00;99998.84;4926440;29;20297;-73
2023/08/22 06:54:02;;;;;;;;;;;;;;;25.69;100.00;100008.03;4921351;29;19923;-72
2023/08/22 06:56:28;;;;;;;;;;;;;;;25.80;100.00;100003.75;4919001;29;19966;-74
2023/08/22 06:58:53;;;;;;;;;;;;;;;25.87;100.00;100001.75;4916561;29;20264;-73
2023/08/22 07:01:19;;;;;;;;;;;;;;;25.95;100.00;100006.84;4922549;29;20372;-74
2023/08/22 07:03:45;;;;;;;;;;;;;;;26.09;100.00;100000.16;4925268;29;20025;-73
2023/08/22 07:06:11;;;;;;;;;;;;;;;26.17;100.00;100004.41;4923725;29;20065;-74
2023/08/22 07:08:36;;;;;;;;;;;;;;;26.22;100.00;100001.81;4920696;29;19946;-73
2023/08/22 07:11:02;;;;;;;;;;;;;;;26.30;100.00;99999.63;4922791;29;20003;-74
2023/08/22 07:13:28;;;;;;;;;;;;;;;26.41;100.00;100006.94;4934015;29;19927;-73
2023/08/22 07:15:53;;;;;;;;;;;;;;;26.51;100.00;100008.25;4930215;29;19934;-72
2023/08/22 07:18:18;;;;;;;;;;;;;;;26.61;100.00;100008.47;4932674;29;19934;-73
2023/08/22 07:20:45;;;;;;;;;;;;;;;26.66;100.00;100009.41;4935391;29;19994;-73
2023/08/22 07:23:11;;;;;;;;;;;;;;;26.74;100.00;100008.22;4933804;29;19938;-73
2023/08/22 07:25:36;;;;;;;;;;;;;;;26.83;100.00;100009.50;4935786;29;19923;-73
2023/08/22 07:28:03;;;;;;;;;;;;;;;26.95;100.00;100006.81;4933995;29;19931;-73
2023/08/22 07:30:28;;;;;;;;;;;;;;;27.04;100.00;100011.59;4929976;29;20388;-73
2023/08/22 07:32:53;;;;;;;;;;;;;;;27.15;100.00;100012.66;4933383;29;19927;-73
2023/08/22 07:35:19;;;;;;;;;;;;;;;27.21;100.00;100017.13;4933556;29;19970;-73
2023/08/22 07:37:44;;;;;;;;;;;;;;;27.28;100.00;100018.59;4931985;29;20418;-73
2023/08/22 07:40:10;;;;;;;;;;;;;;;27.35;100.00;100023.06;4934675;29;20281;-72
2023/08/22 07:42:35;;;;;;;;;;;;;;;27.38;100.00;100018.00;4930148;29;19978;-73
2023/08/22 07:45:01;;;;;;;;;;;;;;;27.43;100.00;100022.69;4934054;29;20107;-74
2023/08/22 07:47:26;;;;;;;;;;;;;;;27.48;100.00;100020.06;4932823;29;19923;-74
2023/08/22 07:49:52;;;;;;;;;;;;;;;27.56;100.00;100022.44;4932199;29;19927;-74
2023/08/22 07:52:17;;;;;;;;;;;;;;;27.63;100.00;100014.97;4933161;29;20383;-74
2023/08/22 07:54:42;;;;;;;;;;;;;;;27.71;100.00;100011.88;4916031;29;20023;-73
2023/08/22 07:57:07;;;;;;;;;;;;;;;27.79;100.00;100016.91;4933219;29;19946;-74
2023/08/22 07:59:33;;;;;;;;;;;;;;;27.88;100.00;100012.72;4933057;29;19923;-73
2023/08/22 08:01:58;;;;;;;;;;;;;;;27.97;100.00;100016.69;4928485;29;19951;-74
2023/08/22 08:04:23;;;;;;;;;;;;;;;28.04;100.00;100017.34;4936883;29;20291;-74
2023/08/22 08:06:49;;;;;;;;;;;;;;;28.12;100.00;100010.69;4936618;29;20761;-74
2023/08/22 08:09:14;;;;;;;;;;;;;;;28.21;100.00;100003.00;4937043;29;19922;-73
2023/08/22 08:11:39;;;;;;;;;;;;;;;28.29;100.00;100002.56;4935426;29;19929;-74
2023/08/22 08:14:05;;;;;;;;;;;;;;;28.35;100.00;100004.28;4929787;29;19993;-74
2023/08/22 08:16:32;;;;;;;;;;;;;;;28.41;100.00;100004.13;4929181;29;20379;-74
2023/08/22 08:18:57;;;;;;;;;;;;;;;28.50;100.00;100007.25;4926262;29;19930;-73
2023/08/22 08:21:23;;;;;;;;;;;;;;;28.59;100.00;100004.94;4927354;29;20299;-73
2023/08/22 08:23:48;;;;;;;;;;;;;;;28.66;100.00;100003.69;4922263;29;20014;-74
2023/08/22 08:26:14;;;;;;;;;;;;;;;28.75;100.00;100002.19;4927347;29;20340;-73
2023/08/22 08:28:40;;;;;;;;;;;;;;;28.80;100.00;99999.59;4929739;29;20402;-73
2023/08/22 08:31:06;;;;;;;;;;;;;;;28.88;100.00;99995.59;4926320;29;19923;-72
2023/08/22 08:33:31;;;;;;;;;;;;;;;28.96;100.00;99997.06;4928275;29;19918;-73
2023/08/22 08:35:57;;;;;;;;;;;;;;;29.02;100.00;99996.03;4927696;29;20320;-75
2023/08/22 08:38:22;;;;;;;;;;;;;;;29.10;100.00;99992.91;4925763;29;20006;-73
2023/08/22 08:40:48;;;;;;;;;;;;;;;29.17;100.00;99988.06;4924605;29;19931;-72
2023/08/22 08:43:13;;;;;;;;;;;;;;;29.25;100.00;99995.78;4924494;29;19923;-71
2023/08/22 08:45:39;;;;;;;;;;;;;;;29.33;100.00;99987.22;4925228;29;20316;-71
2023/08/22 08:48:05;;;;;;;;;;;;;;;29.40;100.00;99998.69;4928920;29;19979;-73
2023/08/22 08:50:31;;;;;;;;;;;;;;;29.47;100.00;99987.63;4925805;29;20324;-72
2023/08/22 08:52:56;;;;;;;;;;;;;;;29.54;100.00;99983.63;4924813;29;19933;-73
2023/08/22 08:55:21;;;;;;;;;;;;;;;29.63;100.00;99989.44;4927033;29;19931;-72
2023/08/22 08:57:47;;;;;;;;;;;;;;;29.68;100.00;99979.44;4928557;29;19970;-73
2023/08/22 09:00:13;;;;;;;;;;;;;;;29.74;100.00;99982.19;4926744;29;19919;-73
2023/08/22 09:02:39;;;;;;;;;;;;;;;29.81;100.00;99988.25;4922808;29;20288;-73
2023/08/22 09:05:04;;;;;;;;;;;;;;;29.84;100.00;99979.56;4923460;29;19919;-73
2023/08/22 09:07:30;;;;;;;;;;;;;;;29.90;100.00;99978.53;4913674;29;20380;-74
2023/08/22 09:09:55;;;;;;;;;;;;;;;30.00;100.00;99979.47;4924992;29;19923;-73
2023/08/22 09:12:21;;;;;;;;;;;;;;;30.09;100.00;99974.38;4924726;29;20010;-74
2023/08/22 09:14:47;;;;;;;;;;;;;;;30.14;100.00;99966.25;4922128;29;20245;-73
2023/08/22 09:17:13;;;;;;;;;;;;;;;30.22;100.00;99963.03;4924708;29;19923;-73
2023/08/22 09:19:39;;;;;;;;;;;;;;;30.30;100.00;99964.44;4926340;29;20018;-71
2023/08/22 09:22:04;;;;;;;;;;;;;;;30.43;99.08;99967.53;4924550;29;19943;-71
2023/08/22 09:24:31;;;;;;;;;;;;;;;30.53;98.26;99966.81;4926890;29;20380;-72
2023/08/22 09:26:56;;;;;;;;;;;;;;;30.57;97.66;99962.50;4926863;29;19926;-72
2023/08/22 09:29:26;;;;;;;;;;;;;;;30.65;95.69;99964.69;4927267;29;20017;-71
2023/08/22 09:31:55;;;;;;;;;;;;;;;30.73;92.88;99964.19;4929500;29;20045;-72
2023/08/22 09:34:20;;;;;;;;;;;;;;;30.80;93.56;99969.41;4930223;29;20303;-71
2023/08/22 09:36:46;;;;;;;;;;;;;;;30.86;91.21;99966.47;4924702;29;19923;-72
2023/08/22 09:39:18;;;;;;;;;;;;;;;30.96;91.24;99962.13;4928177;29;19933;-72
2023/08/22 09:41:44;;;;;;;;;;;;;;;31.08;89.17;99966.28;4926809;29;19978;-74
2023/08/22 09:44:10;;;;;;;;;;;;;;;31.11;88.43;99960.28;4918864;29;19923;-75
2023/08/22 09:46:38;;;;;;;;;;;;;;;31.15;87.75;99955.97;4922292;29;19931;-73
2023/08/22 09:49:04;;;;;;;;;;;;;;;31.18;86.46;99955.41;4926294;29;19954;-75
2023/08/22 09:51:30;;;;;;;;;;;;;;;31.21;87.03;99948.63;4924029;29;19923;-74
2023/08/22 09:53:59;;;;;;;;;;;;;;;31.23;86.50;99949.97;4926488;29;19993;-74
2023/08/22 09:56:25;;;;;;;;;;;;;;;31.30;84.37;99942.34;4926139;29;19970;-74
2023/08/22 09:58:51;;;;;;;;;;;;;;;31.37;83.24;99946.75;4926007;29;20325;-74
2023/08/22 10:01:18;;;;;;;;;;;;;;;31.43;83.64;99935.56;4925120;29;19970;-74
2023/08/22 10:03:47;;;;;;;;;;;;;;;31.53;81.27;99934.75;4925226;29;19959;-74
2023/08/22 10:06:13;;;;;;;;;;;;;;;31.56;81.75;99939.69;4925745;29;20384;-74
2023/08/22 10:08:41;;;;;;;;;;;;;;;31.64;81.19;99936.44;4924482;29;19939;-74
2023/08/22 10:11:08;;;;;;;;;;;;;;;31.70;81.28;99929.88;4926399;29;19922;-74
2023/08/22 10:13:36;;;;;;;;;;;;;;;31.73;81.70;99923.09;4934575;29;20436;-74
2023/08/22 10:16:02;;;;;;;;;;;;;;;31.74;81.87;99928.28;4934930;28;20070;-71
2023/08/22 10:18:27;;;;;;;;;;;;;;;31.78;80.56;99915.72;4931038;29;20017;-74
2023/08/22 10:20:54;;;;;;;;;;;;;;;31.85;79.24;99920.91;4934487;29;20003;-73
2023/08/22 10:23:39;;;;;;;;;;;;;;;31.92;78.25;99925.00;4934713;29;19946;-73
2023/08/22 10:26:04;;;;;;;;;;;;;;;31.95;77.22;99910.78;4932947;28;19919;-73
2023/08/22 10:28:40;;;;;;;;;;;;;;;32.02;76.14;99910.53;4934266;29;19933;-74
2023/08/22 10:31:06;;;;;;;;;;;;;;;32.00;76.16;99905.31;4931755;29;19918;-72
2023/08/22 10:33:32;;;;;;;;;;;;;;;32.03;75.82;99895.78;4934544;29;19934;-76
2023/08/22 10:36:06;;;;;;;;;;;;;;;32.04;75.06;99898.25;4934851;29;19927;-72
2023/08/22 10:38:47;;;;;;;;;;;;;;;32.09;72.85;99895.50;4931188;29;19927;-73
2023/08/22 10:41:12;;;;;;;;;;;;;;;32.13;73.63;99892.22;4933997;29;19923;-73
2023/08/22 10:43:38;;;;;;;;;;;;;;;32.16;74.13;99888.97;4933699;29;19923;-74
2023/08/22 10:46:03;;;;;;;;;;;;;;;32.20;73.21;99885.41;4934080;29;19938;-73
2023/08/22 10:48:29;;;;;;;;;;;;;;;32.22;72.94;99883.22;4934243;29;20414;-74
2023/08/22 10:51:03;;;;;;;;;;;;;;;32.25;72.76;99881.84;4934039;29;19926;-74
2023/08/22 10:53:28;;;;;;;;;;;;;;;32.30;70.57;99879.09;4930653;29;19993;-74
2023/08/22 10:55:54;;;;;;;;;;;;;;;32.35;69.38;99866.22;4936157;29;20483;-74
2023/08/22 10:58:36;;;;;;;;;;;;;;;32.45;69.09;99863.50;4932426;29;20295;-72
2023/08/22 11:01:06;;;;;;;;;;;;;;;32.55;70.01;99865.34;4930578;29;19925;-73
2023/08/22 11:03:32;;;;;;;;;;;;;;;32.54;70.35;99863.72;4930579;29;19933;-74
2023/08/22 11:05:57;;;;;;;;;;;;;;;32.54;70.54;99866.44;4929924;29;19923;-74
2023/08/22 11:08:23;;;;;;;;;;;;;;;32.64;68.11;99860.09;4933988;29;19923;-74
2023/08/22 11:10:48;;;;;;;;;;;;;;;32.69;65.89;99858.22;4933184;29;20017;-73
2023/08/22 11:13:14;;;;;;;;;;;;;;;32.67;65.90;99857.69;4933425;29;19930;-73
2023/08/22 11:15:40;;;;;;;;;;;;;;;32.65;67.42;99857.09;4947609;29;19994;-73
2023/08/22 11:18:06;;;;;;;;;;;;;;;32.70;66.75;99857.09;4933561;29;19922;-74
2023/08/22 11:20:31;;;;;;;;;;;;;;;32.75;68.17;99843.41;4933565;29;19989;-74
2023/08/22 11:22:57;;;;;;;;;;;;;;;32.83;68.91;99845.56;4933557;29;19985;-73
2023/08/22 11:25:25;;;;;;;;;;;;;;;32.89;66.64;99841.72;4936212;29;19931;-73
2023/08/22 11:27:51;;;;;;;;;;;;;;;32.97;67.64;99844.94;4933226;29;20013;-73
2023/08/22 11:30:17;;;;;;;;;;;;;;;32.98;66.78;99841.13;4933228;29;20013;-75
2023/08/22 11:32:43;;;;;;;;;;;;;;;33.05;67.65;99836.16;4932996;29;20269;-72
2023/08/22 11:35:08;;;;;;;;;;;;;;;33.13;66.96;99832.81;4947997;29;19929;-73
2023/08/22 11:37:37;;;;;;;;;;;;;;;33.18;65.49;99835.53;4932963;29;19951;-72
2023/08/22 11:40:09;;;;;;;;;;;;;;;33.25;63.90;99830.56;4933157;29;20009;-71
2023/08/22 11:42:35;;;;;;;;;;;;;;;33.27;64.61;99828.38;4933176;29;19923;-74
2023/08/22 11:45:03;;;;;;;;;;;;;;;33.39;64.18;99830.75;4933118;28;19922;-75
2023/08/22 11:47:34;;;;;;;;;;;;;;;33.48;63.48;99823.53;4929752;29;19923;-75
2023/08/22 11:50:00;;;;;;;;;;;;;;;33.55;63.45;99819.38;4944486;29;20292;-72
2023/08/22 11:52:28;;;;;;;;;;;;;;;33.63;63.41;99817.94;4933213;29;19923;-73
2023/08/22 11:55:00;;;;;;;;;;;;;;;33.70;62.70;99818.44;4935686;29;19923;-73
2023/08/22 11:57:26;;;;;;;;;;;;;;;33.80;61.74;99821.09;4933396;29;19930;-73
2023/08/22 11:59:51;;;;;;;;;;;;;;;33.91;61.28;99817.13;4947415;28;19926;-73
2023/08/22 12:02:17;;;;;;;;;;;;;;;34.04;61.71;99810.16;4932847;29;19978;-73
2023/08/22 12:04:43;;;;;;;;;;;;;;;34.24;61.22;99809.94;4932747;29;19946;-72
2023/08/22 12:07:08;;;;;;;;;;;;;;;34.41;59.86;99815.75;4933029;29;20380;-73
2023/08/22 12:09:33;;;;;;;;;;;;;;;34.56;57.49;99819.41;4932948;29;20406;-73
2023/08/22 12:12:12;;;;;;;;;;;;;;;34.75;58.35;99809.31;4928914;29;20463;-73
2023/08/22 12:14:37;;;;;;;;;;;;;;;34.97;56.92;99806.81;4919869;29;20394;-72
2023/08/22 12:17:02;;;;;;;;;;;;;;;35.19;56.59;99808.91;4924748;29;20018;-73
2023/08/22 12:19:28;;;;;;;;;;;;;;;35.42;54.88;99798.97;4921765;29;19931;-72
2023/08/22 12:21:53;;;;;;;;;;;;;;;35.56;54.58;99795.16;4924336;29;20336;-72
2023/08/22 12:24:18;;;;;;;;;;;;;;;35.71;54.39;99788.59;4923980;29;19923;-74
2023/08/22 12:26:44;;;;;;;;;;;;;;;35.76;52.83;99796.72;4924694;29;20022;-74
2023/08/22 12:29:09;;;;;;;;;;;;;;;35.89;52.46;99779.47;4924249;29;19966;-73
2023/08/22 12:31:34;;;;;;;;;;;;;;;36.00;52.74;99780.88;4921674;29;19923;-74
2023/08/22 12:34:00;;;;;;;;;;;;;;;36.09;53.30;99779.06;4924891;29;19923;-73